Birch Tree, MO (65438)

11:49 AM CDT on September 02, 2014 (GMT -0500)
West Plains Municipal | Change Station
CLOSE
Current Station
Airport
Location: West Plains,
Elevation: 1227 ft
Nearby Weather Stations

Elev 1227 ft 36.88 °N, 91.91 °W | Updated 56 minutes ago

Clear
Clear
69 °F
Feels Like 69 °F
N
6
Wind Variable Wind from WSW

Today
High -- | Low -- °F
--% Chance of Precip.
Yesterday
High -- | Low -- °F
Precip. -- in
6:37 AM 7:32 PM
First Quarter, 53% visible
Pressure 29.99 in
Visibility 10.0 miles
Clouds Clear
Dew Point 65 °F
Humidity 87%
Rainfall 0.33 in
Snow Depth Not available.
UV 7 out of 12
Pollen 7.10 out of 12
Air Quality Not available.
Flu Activity Not available.
METAR KUNO 021553Z AUTO 25005KT 10SM CLR 21/18 A3002 RMK AO2 RAE00 SLP154 P0000 T02060183

More Conditions Fewer Conditions

Pressure 29.99 in
Visibility 10.0 miles
Clouds Clear
Dew Point 65 °F
Humidity 87%
Rainfall 0.33 in
Snow Depth Not available.
UV 7 out of 12
Pollen 7.10 out of 12
Air Quality Not available.
Flu Activity Not available.
METAR KUNO 021553Z AUTO 25005KT 10SM CLR 21/18 A3002 RMK AO2 RAE00 SLP154 P0000 T02060183

More Conditions Fewer Conditions

10-Day Weather Forecast

Almanac

Astronomy

Sep. 02, 2014 Rise Set
Actual Time 6:37 AM CDT 7:32 PM CDT
Civil Twilight 6:11 AM CDT 7:59 PM CDT
Nautical Twilight 5:39 AM CDT 8:30 PM CDT
Astronomical Twilight 5:07 AM CDT 9:03 PM CDT
Moon 2:11 PM CDT No Moon Set
Length of Visible Light 13h 48m
Length of Day
12h 55m
Tomorrow will be 2m 16s shorter.
First Quarter, 53% of the Moon is Illuminated
Today
First Quarter
Sep 8
Full
Sep 15
Last Quarter
Sep 24
New
Oct 1
First Quarter

Today's Extremes

State Highs State Lows

Community

WunderPhotos

Upload Photos

1,749,716 photos uploaded!

WunderBlogs® & News

Nearby

Snow Depth

Station Depth Elevation
No new snow has been reported.

Earthquake Activity

City Distance Mag. Time & Date
Tiptonville, Tennessee 115 miles 2.9 11:19 PM CDT
2014-08-31
Minimum magnitude displayed is 2.5.

Coastal Water Temperatures

Place Temperature
No Stations Reporting

Nearby Weather Stations